Time;durP1;ratioP1;P1;durP2;ratioP2;P2;SDS_P1;SDS_P2;PMS_P1;PMS_P2;Temp;Humidity;BMP_temperature;BMP_pressure;BME280_temperature;BME280_humidity;BME280_pressure;Samples;Min_cycle;Max_cycle;Signal;HPM_P1;HPM_P2
2023/01/14 00:01:18;;;;;;;27.50;5.82;;;7.20;99.90;;;;;;5112143;28;20047;-79
2023/01/14 00:04:05;;;;;;;29.80;5.28;;;7.20;99.90;;;;;;5112535;28;20087;-81
2023/01/14 00:06:51;;;;;;;34.15;5.82;;;7.20;99.90;;;;;;5098253;28;20499;-81
2023/01/14 00:09:37;;;;;;;27.77;4.80;;;7.20;99.90;;;;;;5113079;28;20047;-81
2023/01/14 00:12:23;;;;;;;22.35;5.00;;;7.20;99.90;;;;;;5112184;28;20047;-80
2023/01/14 00:15:10;;;;;;;25.73;4.60;;;7.20;99.90;;;;;;5097597;28;20047;-80
2023/01/14 00:17:56;;;;;;;28.83;4.20;;;7.20;99.90;;;;;;5097330;28;20047;-80
2023/01/14 00:20:42;;;;;;;24.63;6.25;;;7.10;99.90;;;;;;5095177;28;20397;-80
2023/01/14 00:23:29;;;;;;;28.40;5.38;;;7.10;99.90;;;;;;5116256;28;20605;-80
2023/01/14 00:26:16;;;;;;;32.70;6.88;;;7.00;99.90;;;;;;5116687;28;20155;-81
2023/01/14 00:29:03;;;;;;;32.17;5.60;;;7.10;99.90;;;;;;5111716;28;20411;-81
2023/01/14 00:31:49;;;;;;;31.65;4.30;;;7.10;99.90;;;;;;5112127;28;20047;-82
2023/01/14 00:34:38;;;;;;;27.08;4.47;;;7.10;99.90;;;;;;5112758;28;20392;-81
2023/01/14 00:37:24;;;;;;;31.13;5.15;;;7.20;99.90;;;;;;5097172;28;20048;-81
2023/01/14 00:40:11;;;;;;;26.73;5.35;;;7.10;99.90;;;;;;5112661;28;20047;-80
2023/01/14 00:42:57;;;;;;;22.15;4.65;;;7.10;99.90;;;;;;5112343;28;20063;-81
2023/01/14 00:45:43;;;;;;;30.48;6.28;;;7.00;99.90;;;;;;5111872;28;20035;-82
2023/01/14 00:48:29;;;;;;;36.53;5.78;;;7.00;99.90;;;;;;5112270;28;20504;-80
2023/01/14 00:51:16;;;;;;;24.67;4.70;;;6.90;99.90;;;;;;5099421;28;20044;-79
2023/01/14 00:54:03;;;;;;;31.85;4.57;;;6.90;99.90;;;;;;5111984;28;20062;-80
2023/01/14 00:56:49;;;;;;;31.38;4.70;;;6.90;99.90;;;;;;5103961;28;20547;-80
2023/01/14 00:59:35;;;;;;;31.75;5.50;;;6.80;99.90;;;;;;5112105;28;20051;-81
2023/01/14 01:02:21;;;;;;;28.05;4.80;;;6.80;99.90;;;;;;5111640;28;20050;-80
2023/01/14 01:05:08;;;;;;;25.27;5.22;;;6.80;99.90;;;;;;5096187;28;20153;-80
2023/01/14 01:07:54;;;;;;;25.00;5.15;;;6.70;99.90;;;;;;5093572;28;20055;-80
2023/01/14 01:10:47;;;;;;;23.27;4.43;;;6.70;99.90;;;;;;5097437;28;20055;-82
2023/01/14 01:13:35;;;;;;;30.45;4.13;;;6.80;99.90;;;;;;5095213;28;20052;-82
2023/01/14 01:16:24;;;;;;;23.83;4.22;;;6.80;99.90;;;;;;5100610;28;20127;-80
2023/01/14 01:19:10;;;;;;;28.63;6.15;;;6.80;99.90;;;;;;5110122;28;20077;-82
2023/01/14 01:21:56;;;;;;;35.42;5.22;;;6.90;99.90;;;;;;5095674;28;20044;-82
2023/01/14 01:24:42;;;;;;;34.35;7.25;;;6.90;99.90;;;;;;5111827;28;20052;-83
2023/01/14 01:27:28;;;;;;;29.88;5.55;;;6.90;99.90;;;;;;5110179;28;20044;-82
2023/01/14 01:30:15;;;;;;;22.73;4.60;;;6.90;99.90;;;;;;5110857;28;20058;-80
2023/01/14 01:33:01;;;;;;;23.50;5.25;;;6.90;99.90;;;;;;5095810;28;20096;-80
2023/01/14 01:35:47;;;;;;;32.67;6.10;;;6.90;99.90;;;;;;5111657;28;20047;-82
2023/01/14 01:38:33;;;;;;;27.17;4.25;;;6.90;99.90;;;;;;5096232;28;20058;-81
2023/01/14 01:41:25;;;;;;;30.77;5.32;;;6.90;99.90;;;;;;5115305;28;20153;-82
2023/01/14 01:44:12;;;;;;;31.23;7.00;;;6.90;99.90;;;;;;5110753;28;20047;-80
2023/01/14 01:46:58;;;;;;;27.40;4.88;;;7.00;99.90;;;;;;5109537;28;20051;-83
2023/01/14 01:49:46;;;;;;;39.72;5.78;;;7.00;99.90;;;;;;5110614;28;20200;-80
2023/01/14 01:52:32;;;;;;;32.72;5.40;;;7.00;99.90;;;;;;5110558;28;20499;-80
2023/01/14 01:55:20;;;;;;;31.58;4.40;;;7.00;99.90;;;;;;5090850;28;20055;-81
2023/01/14 01:58:09;;;;;;;33.00;5.32;;;7.00;99.90;;;;;;5092712;28;20048;-79
2023/01/14 02:00:55;;;;;;;28.30;5.78;;;7.00;99.90;;;;;;5108937;28;20499;-81
2023/01/14 02:03:45;;;;;;;34.67;5.03;;;7.00;99.90;;;;;;5110851;28;20050;-81
2023/01/14 02:06:32;;;;;;;41.92;7.20;;;7.00;99.90;;;;;;5116834;28;20078;-81
2023/01/14 02:09:18;;;;;;;33.67;4.97;;;6.90;99.90;;;;;;5095971;28;20048;-83
2023/01/14 02:12:21;;;;;;;30.42;5.03;;;6.90;99.90;;;;;;5092660;28;20804;-81
2023/01/14 02:15:48;;;;;;;33.08;5.95;;;6.90;99.90;;;;;;5109193;28;20499;-81
2023/01/14 02:19:02;;;;;;;25.10;5.78;;;6.90;99.90;;;;;;5075434;28;20539;-83
2023/01/14 02:22:04;;;;;;;27.80;4.90;;;6.90;99.90;;;;;;5078188;28;20047;-80
2023/01/14 02:25:11;;;;;;;49.70;6.28;;;6.90;99.90;;;;;;5109867;28;20438;-79
2023/01/14 02:28:24;;;;;;;24.55;4.07;;;6.90;99.90;;;;;;5092037;28;20053;-77
2023/01/14 02:31:19;;;;;;;26.20;4.90;;;6.80;99.90;;;;;;5109776;28;20498;-81
2023/01/14 02:34:10;;;;;;;37.63;5.78;;;6.80;99.90;;;;;;5078263;28;20051;-81
2023/01/14 02:37:11;;;;;;;30.48;4.60;;;6.70;99.90;;;;;;5115735;28;20052;-80
2023/01/14 02:40:07;;;;;;;33.60;5.28;;;6.70;99.90;;;;;;5109754;28;20130;-79
2023/01/14 02:46:30;;;;;;;39.17;5.85;;;6.60;99.90;;;;;;5109247;28;20557;-79
2023/01/14 02:49:22;;;;;;;26.48;4.13;;;6.60;99.90;;;;;;5109265;28;20040;-79
2023/01/14 02:52:09;;;;;;;40.17;6.00;;;6.60;99.90;;;;;;5108837;28;20556;-78
2023/01/14 02:54:57;;;;;;;20.15;3.88;;;6.60;99.90;;;;;;5109613;28;20410;-79
2023/01/14 02:58:02;;;;;;;29.27;5.20;;;6.60;99.90;;;;;;5109532;28;20048;-80
2023/01/14 03:01:23;;;;;;;24.17;4.80;;;6.60;99.90;;;;;;5116173;28;20047;-81
2023/01/14 03:04:18;;;;;;;26.88;4.72;;;6.60;99.90;;;;;;5091323;28;20054;-79
2023/01/14 03:07:38;;;;;;;26.35;4.72;;;6.60;99.90;;;;;;5110262;28;20090;-78
2023/01/14 03:10:43;;;;;;;19.55;4.22;;;6.70;99.90;;;;;;5090948;28;20056;-78
2023/01/14 03:13:38;;;;;;;24.35;4.40;;;6.70;99.90;;;;;;5090842;28;20052;-83
2023/01/14 03:16:24;;;;;;;20.65;4.70;;;6.70;99.90;;;;;;5109356;28;20758;-79
2023/01/14 03:19:27;;;;;;;30.00;4.20;;;6.70;99.90;;;;;;5108616;28;20054;-78
2023/01/14 03:22:13;;;;;;;26.35;4.10;;;6.80;99.90;;;;;;5090672;28;20510;-80
2023/01/14 03:25:02;;;;;;;27.88;5.65;;;6.70;99.90;;;;;;5108926;28;20491;-78
2023/01/14 03:27:51;;;;;;;31.08;5.68;;;6.70;99.90;;;;;;5113485;28;20044;-80
2023/01/14 03:30:42;;;;;;;33.17;4.18;;;6.60;99.90;;;;;;5108999;28;20044;-80
2023/01/14 03:33:36;;;;;;;30.17;4.32;;;6.60;99.90;;;;;;5094316;28;20139;-78
2023/01/14 03:36:24;;;;;;;39.63;4.97;;;6.60;99.90;;;;;;5109010;28;20523;-79
2023/01/14 03:39:20;;;;;;;22.45;4.78;;;6.50;99.90;;;;;;5108958;28;20146;-79
2023/01/14 03:42:18;;;;;;;32.65;4.72;;;6.50;99.90;;;;;;5108077;28;20044;-80
2023/01/14 03:45:18;;;;;;;28.63;3.90;;;6.50;99.90;;;;;;5090121;28;20051;-79
2023/01/14 03:48:06;;;;;;;24.88;3.88;;;6.50;99.90;;;;;;5108171;28;20130;-80
2023/01/14 03:50:52;;;;;;;31.83;5.38;;;6.50;99.90;;;;;;5113059;28;20051;-78
2023/01/14 03:54:18;;;;;;;29.17;4.47;;;6.40;99.90;;;;;;5109964;28;20044;-81
2023/01/14 03:57:31;;;;;;;28.25;4.30;;;6.40;99.90;;;;;;5108565;28;20047;-79
2023/01/14 04:00:51;;;;;;;23.42;4.30;;;6.40;99.90;;;;;;5108056;28;20044;-81
2023/01/14 04:03:38;;;;;;;16.65;3.33;;;6.30;99.90;;;;;;5109409;28;20048;-80
2023/01/14 04:06:24;;;;;;;28.95;5.43;;;6.20;99.90;;;;;;5112307;28;20388;-80
2023/01/14 04:09:11;;;;;;;29.58;4.28;;;6.20;99.90;;;;;;5112558;28;20164;-79
2023/01/14 04:11:57;;;;;;;22.30;3.72;;;6.20;99.90;;;;;;5114966;28;20060;-79
2023/01/14 04:17:48;;;;;;;26.33;4.65;;;6.20;99.90;;;;;;5093984;28;20079;-81
2023/01/14 04:20:34;;;;;;;28.55;3.97;;;6.20;99.90;;;;;;5112068;28;20054;-80
2023/01/14 04:23:20;;;;;;;27.23;4.65;;;6.20;99.90;;;;;;5112985;28;20044;-84
2023/01/14 04:26:06;;;;;;;26.52;4.53;;;6.10;99.90;;;;;;5097911;28;20054;-82
2023/01/14 04:28:52;;;;;;;24.60;5.78;;;6.10;99.90;;;;;;5112078;28;20062;-82
2023/01/14 04:31:38;;;;;;;25.23;4.53;;;6.10;99.90;;;;;;5112683;28;20620;-80
2023/01/14 04:34:24;;;;;;;17.60;4.00;;;6.00;99.90;;;;;;5112533;28;20052;-83
2023/01/14 04:37:11;;;;;;;22.73;4.85;;;6.00;99.90;;;;;;5112802;28;20055;-78
2023/01/14 04:39:57;;;;;;;26.88;3.65;;;6.00;99.90;;;;;;5117634;28;20044;-85
2023/01/14 04:42:43;;;;;;;33.13;4.40;;;6.00;99.90;;;;;;5113192;28;20073;-80
2023/01/14 04:45:29;;;;;;;21.08;3.85;;;6.10;99.90;;;;;;5112622;28;20796;-80
2023/01/14 04:48:15;;;;;;;23.55;4.90;;;6.10;99.90;;;;;;5112326;28;20047;-80
2023/01/14 04:51:01;;;;;;;26.10;5.18;;;6.10;99.90;;;;;;5111462;28;20479;-80
2023/01/14 04:53:48;;;;;;;29.83;5.97;;;6.20;99.90;;;;;;5110404;28;20040;-83
2023/01/14 04:56:34;;;;;;;26.67;4.47;;;6.10;99.90;;;;;;5110224;28;20454;-80
2023/01/14 04:59:20;;;;;;;20.05;5.55;;;6.10;99.90;;;;;;5111045;28;20055;-81
2023/01/14 05:02:06;;;;;;;27.10;5.45;;;6.20;99.90;;;;;;5111609;28;20460;-82
2023/01/14 05:04:52;;;;;;;27.23;4.60;;;6.10;99.90;;;;;;5110645;28;20054;-80
2023/01/14 05:07:38;;;;;;;18.80;3.80;;;6.10;99.90;;;;;;5112841;28;20117;-79
2023/01/14 05:10:25;;;;;;;21.23;4.30;;;6.00;99.90;;;;;;5121332;27;20051;-81
2023/01/14 05:13:11;;;;;;;31.33;4.60;;;6.10;99.90;;;;;;5130665;27;20043;-84
2023/01/14 05:16:00;;;;;;;23.27;3.80;;;6.10;99.90;;;;;;5130259;27;20498;-82
2023/01/14 05:18:46;;;;;;;29.80;4.30;;;6.10;99.90;;;;;;5130842;27;20051;-82
2023/01/14 05:21:32;;;;;;;29.48;4.30;;;6.10;99.90;;;;;;5116037;27;20089;-80
2023/01/14 05:24:18;;;;;;;29.45;4.45;;;6.10;99.90;;;;;;5130512;27;20047;-80
2023/01/14 05:27:05;;;;;;;31.83;5.07;;;6.00;99.90;;;;;;5130627;27;20073;-82
2023/01/14 05:29:51;;;;;;;18.85;4.13;;;6.00;99.90;;;;;;5130808;27;20039;-80
2023/01/14 05:32:37;;;;;;;32.03;5.53;;;5.90;99.90;;;;;;5131219;27;20043;-82
2023/01/14 05:35:24;;;;;;;22.20;4.20;;;5.90;99.90;;;;;;5131425;27;20126;-83
2023/01/14 05:38:10;;;;;;;31.00;6.00;;;5.90;99.90;;;;;;5119306;27;20043;-81
2023/01/14 05:40:57;;;;;;;27.65;3.70;;;5.80;99.90;;;;;;5133437;27;20045;-81
2023/01/14 05:46:50;;;;;;;23.83;4.65;;;5.90;99.90;;;;;;5131909;27;20099;-81
2023/01/14 05:49:36;;;;;;;20.73;3.53;;;5.80;99.90;;;;;;5115808;27;20047;-79
2023/01/14 05:52:22;;;;;;;26.23;3.97;;;5.90;99.90;;;;;;5136153;27;20134;-79
2023/01/14 05:55:08;;;;;;;20.48;4.72;;;5.90;99.90;;;;;;5132721;27;20047;-82
2023/01/14 05:58:01;;;;;;;21.20;4.88;;;5.80;99.90;;;;;;5138653;27;20047;-79
2023/01/14 06:06:57;;;;;;;26.73;5.45;;;5.70;99.90;;;;;;5132750;27;20082;-80
2023/01/14 06:09:43;;;;;;;23.60;4.25;;;5.70;99.90;;;;;;5129549;27;20053;-81
2023/01/14 06:12:57;;;;;;;24.25;3.97;;;5.70;99.90;;;;;;5090210;28;20048;-80
2023/01/14 06:15:45;;;;;;;20.05;3.53;;;5.70;99.90;;;;;;5089705;28;20044;-81
2023/01/14 06:18:37;;;;;;;27.25;5.10;;;5.70;99.90;;;;;;5089319;28;20052;-81
2023/01/14 06:21:28;;;;;;;20.13;4.15;;;5.70;99.90;;;;;;5090183;28;20807;-81
2023/01/14 06:24:14;;;;;;;21.38;4.10;;;5.70;99.90;;;;;;5089676;28;20051;-79
2023/01/14 06:27:00;;;;;;;28.02;4.55;;;5.60;99.90;;;;;;5090332;28;20475;-79
2023/01/14 06:29:46;;;;;;;22.48;5.22;;;5.60;99.90;;;;;;5094969;28;20047;-79
2023/01/14 06:32:34;;;;;;;26.88;4.63;;;5.60;99.90;;;;;;5087964;28;20084;-79
2023/01/14 06:35:20;;;;;;;31.48;4.93;;;5.60;99.90;;;;;;5089939;28;20075;-79
2023/01/14 06:38:06;;;;;;;25.85;4.75;;;5.70;99.90;;;;;;5074184;28;20484;-79
2023/01/14 06:40:52;;;;;;;34.10;4.65;;;5.70;99.90;;;;;;5073939;28;20059;-82
2023/01/14 06:43:41;;;;;;;25.08;4.03;;;5.70;99.90;;;;;;5089728;28;20044;-81
2023/01/14 06:46:29;;;;;;;24.58;5.05;;;5.70;99.90;;;;;;5089382;28;20130;-81
2023/01/14 06:49:15;;;;;;;24.15;4.47;;;5.70;99.90;;;;;;5090438;28;20044;-82
2023/01/14 06:52:02;;;;;;;28.73;4.90;;;5.70;99.90;;;;;;5092356;28;20437;-79
2023/01/14 06:54:48;;;;;;;28.83;5.68;;;5.70;99.90;;;;;;5092688;28;20048;-81
2023/01/14 06:57:34;;;;;;;32.25;6.03;;;5.70;99.90;;;;;;5090476;28;20048;-79
2023/01/14 07:00:20;;;;;;;34.05;5.57;;;5.70;99.90;;;;;;5089112;28;20131;-79
2023/01/14 07:03:07;;;;;;;26.33;5.63;;;5.70;99.90;;;;;;5088918;28;20074;-80
2023/01/14 07:05:53;;;;;;;28.20;5.50;;;5.70;99.90;;;;;;5089180;28;20045;-80
2023/01/14 07:08:39;;;;;;;32.45;5.82;;;5.70;99.90;;;;;;5090021;28;20048;-80
2023/01/14 07:11:25;;;;;;;24.63;6.22;;;5.70;99.90;;;;;;5088053;28;20491;-81
2023/01/14 07:14:11;;;;;;;24.85;5.55;;;5.70;99.90;;;;;;5114147;28;20047;-79
2023/01/14 07:16:57;;;;;;;48.13;6.93;;;5.80;99.90;;;;;;5129149;28;20142;-84
2023/01/14 07:19:43;;;;;;;36.03;6.20;;;5.80;99.90;;;;;;5130855;28;20044;-81
2023/01/14 07:22:30;;;;;;;25.08;6.97;;;5.80;99.90;;;;;;5128992;28;20058;-82
2023/01/14 07:25:17;;;;;;;29.73;8.25;;;5.80;99.90;;;;;;5128637;28;20054;-81
2023/01/14 07:28:04;;;;;;;30.92;7.30;;;5.80;99.90;;;;;;5110828;28;20491;-80
2023/01/14 07:30:51;;;;;;;34.80;7.95;;;5.80;99.90;;;;;;5113845;28;20073;-79
2023/01/14 07:33:37;;;;;;;32.78;7.43;;;5.90;99.90;;;;;;5129627;28;20047;-82
2023/01/14 07:36:23;;;;;;;27.17;7.72;;;5.90;99.90;;;;;;5129714;28;20039;-80
2023/01/14 07:39:09;;;;;;;26.60;7.75;;;5.90;99.90;;;;;;5130382;27;20058;-80
2023/01/14 07:41:55;;;;;;;39.80;8.88;;;5.90;99.90;;;;;;5132259;27;20047;-82
2023/01/14 07:44:43;;;;;;;38.15;8.55;;;5.90;99.90;;;;;;5133297;27;20085;-84
2023/01/14 07:47:29;;;;;;;28.27;7.70;;;5.90;99.90;;;;;;5136846;27;20058;-83
2023/01/14 07:50:17;;;;;;;39.53;7.72;;;5.90;99.90;;;;;;5132333;27;20051;-82
2023/01/14 07:53:03;;;;;;;28.10;7.32;;;5.90;99.90;;;;;;5132755;27;20043;-80
2023/01/14 07:55:49;;;;;;;33.40;7.63;;;5.90;99.90;;;;;;5132107;27;20055;-79
2023/01/14 07:58:35;;;;;;;30.55;8.25;;;6.00;99.90;;;;;;5133483;27;20079;-80
2023/01/14 08:01:22;;;;;;;27.90;7.15;;;6.00;99.90;;;;;;5132882;27;20043;-79
2023/01/14 08:04:08;;;;;;;40.17;8.20;;;6.00;99.90;;;;;;5114424;27;20051;-81
2023/01/14 08:06:56;;;;;;;34.92;7.82;;;6.00;99.90;;;;;;5132537;27;20042;-80
2023/01/14 08:09:42;;;;;;;38.10;8.10;;;6.00;99.90;;;;;;5132192;27;20054;-79
2023/01/14 08:12:31;;;;;;;38.25;8.48;;;6.00;99.90;;;;;;5115267;27;20144;-78
2023/01/14 08:15:18;;;;;;;34.42;8.27;;;6.00;99.90;;;;;;5138355;27;20051;-82
2023/01/14 08:18:04;;;;;;;37.80;8.77;;;6.00;99.90;;;;;;5131941;27;20047;-80
2023/01/14 08:20:58;;;;;;;38.00;9.32;;;6.10;99.90;;;;;;5099744;27;20047;-80
2023/01/14 08:23:44;;;;;;;41.47;9.45;;;6.00;99.90;;;;;;5132284;27;20057;-81
2023/01/14 08:26:30;;;;;;;35.40;9.07;;;6.00;99.90;;;;;;5132557;27;20054;-81
2023/01/14 08:29:17;;;;;;;42.95;8.68;;;6.00;99.90;;;;;;5131943;27;20043;-80
2023/01/14 08:32:03;;;;;;;42.13;9.32;;;6.00;99.90;;;;;;5132515;27;20043;-79
2023/01/14 08:34:49;;;;;;;51.95;8.57;;;6.00;99.90;;;;;;5131622;27;20055;-81
2023/01/14 08:37:36;;;;;;;34.83;8.18;;;6.00;99.90;;;;;;5132648;27;20074;-79
2023/01/14 08:40:23;;;;;;;44.10;11.48;;;6.00;99.90;;;;;;5134349;27;20047;-81
2023/01/14 08:43:09;;;;;;;33.10;7.53;;;6.00;99.90;;;;;;5133134;27;20054;-83
2023/01/14 08:45:55;;;;;;;42.45;7.68;;;6.00;99.90;;;;;;5113697;27;20044;-79
2023/01/14 08:48:41;;;;;;;28.73;6.88;;;6.00;99.90;;;;;;5131240;27;20050;-80
2023/01/14 08:51:29;;;;;;;38.97;6.80;;;6.00;99.90;;;;;;5130298;27;20372;-80
2023/01/14 08:54:15;;;;;;;25.75;5.70;;;6.00;99.90;;;;;;5115936;27;20050;-80
2023/01/14 08:57:01;;;;;;;42.85;7.45;;;6.00;99.90;;;;;;5131638;27;20046;-82
2023/01/14 08:59:48;;;;;;;28.17;7.63;;;6.00;99.90;;;;;;5131012;27;20063;-80
2023/01/14 09:02:34;;;;;;;43.65;9.55;;;6.00;99.90;;;;;;5113019;27;20507;-82
2023/01/14 09:05:21;;;;;;;34.13;6.43;;;6.00;99.90;;;;;;5131806;27;20122;-81
2023/01/14 09:17:30;;;;;;;29.63;6.32;;;6.00;99.90;;;;;;5131538;27;20517;-80
2023/01/14 09:20:17;;;;;;;27.73;5.85;;;6.00;99.90;;;;;;5116811;27;20091;-81
2023/01/14 09:23:06;;;;;;;30.92;5.90;;;6.00;99.90;;;;;;5130932;27;20854;-81
2023/01/14 09:25:52;;;;;;;30.95;6.43;;;6.00;99.90;;;;;;5130763;27;20043;-83
2023/01/14 09:28:38;;;;;;;31.40;8.15;;;6.00;99.90;;;;;;5131178;27;20054;-81
2023/01/14 09:31:25;;;;;;;36.22;5.65;;;6.00;99.90;;;;;;5131062;27;20117;-82
2023/01/14 09:34:11;;;;;;;24.70;5.55;;;6.00;99.90;;;;;;5130335;27;20562;-84
2023/01/14 09:36:57;;;;;;;28.05;5.78;;;6.00;99.90;;;;;;5132485;27;20134;-80
2023/01/14 09:39:43;;;;;;;21.48;5.55;;;6.00;99.90;;;;;;5131558;27;20051;-82
2023/01/14 09:42:31;;;;;;;29.25;5.63;;;6.00;99.90;;;;;;5115679;27;20057;-82
2023/01/14 09:45:32;;;;;;;27.67;6.20;;;6.00;99.90;;;;;;5136962;27;20102;-81
2023/01/14 09:48:21;;;;;;;23.63;4.90;;;6.00;99.90;;;;;;5115652;27;20047;-81
2023/01/14 09:51:33;;;;;;;25.52;4.93;;;6.00;99.90;;;;;;5115349;27;20058;-83
2023/01/14 09:54:40;;;;;;;25.98;5.53;;;6.00;99.90;;;;;;5131120;27;20047;-81
2023/01/14 09:58:00;;;;;;;24.98;4.78;;;6.00;99.90;;;;;;5130183;27;20486;-84
2023/01/14 10:01:05;;;;;;;25.23;4.40;;;6.00;99.90;;;;;;5130335;27;20039;-79
2023/01/14 10:03:54;;;;;;;19.55;4.30;;;6.10;99.90;;;;;;5130224;27;20399;-85
2023/01/14 10:06:43;;;;;;;21.58;4.28;;;6.10;99.90;;;;;;5133754;27;20058;-83
2023/01/14 10:09:35;;;;;;;16.45;4.00;;;6.10;99.90;;;;;;5131187;27;20055;-83
2023/01/14 10:12:29;;;;;;;17.17;4.22;;;6.10;99.90;;;;;;5113034;27;20047;-81
2023/01/14 10:15:18;;;;;;;17.90;2.92;;;6.20;99.90;;;;;;5130573;27;20043;-81
2023/01/14 10:18:18;;;;;;;16.92;3.65;;;6.20;99.90;;;;;;5111744;27;20059;-84
2023/01/14 10:21:17;;;;;;;17.98;3.75;;;6.20;99.90;;;;;;5111151;27;20046;-80
2023/01/14 10:24:03;;;;;;;15.52;3.20;;;6.20;99.90;;;;;;5114747;27;20059;-82
2023/01/14 10:26:50;;;;;;;14.43;3.55;;;6.20;99.90;;;;;;5129256;27;20062;-85
2023/01/14 10:29:37;;;;;;;16.08;3.25;;;6.30;99.90;;;;;;5130746;27;20418;-80
2023/01/14 10:32:24;;;;;;;13.10;2.75;;;6.30;99.90;;;;;;5135237;27;20102;-83
2023/01/14 10:35:16;;;;;;;11.48;2.58;;;6.40;99.90;;;;;;5129680;27;20079;-86
2023/01/14 10:38:03;;;;;;;14.68;2.55;;;6.40;99.90;;;;;;5111821;27;20043;-82
2023/01/14 10:40:51;;;;;;;10.43;2.92;;;6.40;99.90;;;;;;5129663;27;20055;-83
2023/01/14 10:43:42;;;;;;;10.85;2.58;;;6.50;99.90;;;;;;5129577;27;20046;-86
2023/01/14 10:46:28;;;;;;;17.33;4.90;;;6.50;99.90;;;;;;5114743;27;20510;-81
2023/01/14 10:49:25;;;;;;;7.13;2.25;;;6.50;99.90;;;;;;5131011;27;20086;-83
2023/01/14 10:52:19;;;;;;;9.32;2.20;;;6.60;99.90;;;;;;5133535;28;20807;-82
2023/01/14 10:55:12;;;;;;;10.38;2.35;;;6.70;99.90;;;;;;5129989;28;20448;-83
2023/01/14 10:58:00;;;;;;;8.98;2.33;;;6.70;99.90;;;;;;5129885;28;20084;-81
2023/01/14 11:00:51;;;;;;;9.27;2.55;;;6.70;99.90;;;;;;5129279;28;20047;-81
2023/01/14 11:03:42;;;;;;;7.30;2.10;;;6.80;99.90;;;;;;5128893;28;20090;-82
2023/01/14 11:06:30;;;;;;;9.35;1.88;;;6.80;99.90;;;;;;5130430;28;20146;-80
2023/01/14 11:09:28;;;;;;;9.23;2.15;;;6.90;99.90;;;;;;5120579;28;20102;-82
2023/01/14 11:12:31;;;;;;;12.48;2.50;;;6.90;99.90;;;;;;5129321;27;20062;-81
2023/01/14 11:15:36;;;;;;;6.95;2.25;;;6.90;99.90;;;;;;5115044;27;20035;-82
2023/01/14 11:18:26;;;;;;;7.40;2.17;;;6.90;99.90;;;;;;5132989;27;20486;-84
2023/01/14 11:21:12;;;;;;;6.82;2.05;;;6.90;99.90;;;;;;5133829;27;20135;-81
2023/01/14 11:24:06;;;;;;;5.90;2.88;;;6.90;99.90;;;;;;5133649;27;20043;-85
2023/01/14 11:27:25;;;;;;;8.80;2.00;;;6.90;99.90;;;;;;5114761;27;20051;-83
2023/01/14 11:30:18;;;;;;;10.35;3.47;;;6.90;99.90;;;;;;5137084;27;20050;-82
2023/01/14 11:33:04;;;;;;;14.63;4.28;;;6.90;99.90;;;;;;5118059;27;20039;-80
2023/01/14 11:35:54;;;;;;;7.78;2.42;;;6.90;99.90;;;;;;5133967;27;20043;-81
2023/01/14 11:38:45;;;;;;;6.28;2.67;;;6.90;99.90;;;;;;5133397;27;20044;-83
2023/01/14 11:41:39;;;;;;;4.22;1.67;;;6.90;99.90;;;;;;5133628;27;20051;-80
2023/01/14 11:44:28;;;;;;;6.68;2.45;;;6.90;99.90;;;;;;5115736;27;20043;-86
2023/01/14 11:47:17;;;;;;;6.90;2.30;;;6.90;99.90;;;;;;5120293;27;20051;-83
2023/01/14 11:50:15;;;;;;;8.13;2.03;;;7.00;99.90;;;;;;5117522;27;20054;-83
2023/01/14 11:53:16;;;;;;;7.22;2.00;;;7.00;99.90;;;;;;5133895;27;20039;-83
2023/01/14 11:56:02;;;;;;;7.60;2.17;;;7.00;99.90;;;;;;5134211;27;20051;-82
2023/01/14 11:58:48;;;;;;;9.30;2.13;;;7.00;99.90;;;;;;5134085;27;20074;-82
2023/01/14 12:01:47;;;;;;;7.13;1.83;;;7.00;99.90;;;;;;5133355;27;20469;-85
2023/01/14 12:04:56;;;;;;;6.15;1.65;;;7.00;99.90;;;;;;5133272;27;20054;-82
2023/01/14 12:07:57;;;;;;;5.38;2.47;;;7.00;99.90;;;;;;5133509;27;20047;-86
2023/01/14 12:10:46;;;;;;;7.85;2.25;;;7.00;99.90;;;;;;5140552;27;20051;-83
2023/01/14 12:16:55;;;;;;;6.93;1.90;;;7.00;99.90;;;;;;5132396;27;20091;-81
2023/01/14 12:19:49;;;;;;;7.80;1.77;;;7.10;99.90;;;;;;5133462;27;20055;-83
2023/01/14 12:22:47;;;;;;;10.07;1.52;;;7.10;99.90;;;;;;5132534;27;20046;-86
2023/01/14 12:25:38;;;;;;;7.85;2.72;;;7.10;99.90;;;;;;5112856;27;20823;-83
2023/01/14 12:28:56;;;;;;;6.43;2.80;;;7.10;99.90;;;;;;5132585;27;20460;-83
2023/01/14 12:31:49;;;;;;;8.77;2.50;;;7.20;99.90;;;;;;5141842;27;20096;-83
2023/01/14 12:34:53;;;;;;;5.80;2.28;;;7.20;99.90;;;;;;5132018;27;20074;-84
2023/01/14 12:37:53;;;;;;;3.85;1.67;;;7.20;99.90;;;;;;5131943;27;20054;-83
2023/01/14 12:47:03;;;;;;;10.70;2.33;;;7.30;99.90;;;;;;5132351;27;20043;-82
2023/01/14 12:49:49;;;;;;;6.53;2.20;;;7.30;99.90;;;;;;5132083;27;20043;-85
2023/01/14 12:52:39;;;;;;;10.25;1.80;;;7.30;99.90;;;;;;5133047;27;20123;-83
2023/01/14 12:55:37;;;;;;;7.80;2.20;;;7.40;99.90;;;;;;5135698;27;20047;-81
2023/01/14 12:58:27;;;;;;;6.28;1.60;;;7.50;99.90;;;;;;5117993;27;20399;-83
2023/01/14 13:01:14;;;;;;;7.93;1.67;;;7.50;99.90;;;;;;5132779;27;20047;-82
2023/01/14 13:04:15;;;;;;;5.05;1.95;;;7.60;99.90;;;;;;5132387;27;20047;-83
2023/01/14 13:07:04;;;;;;;4.00;1.63;;;7.60;99.90;;;;;;5131418;27;20055;-82
2023/01/14 13:09:56;;;;;;;4.40;1.45;;;7.60;99.90;;;;;;5131298;27;20517;-81
2023/01/14 13:12:48;;;;;;;6.40;1.88;;;7.70;99.90;;;;;;5137385;27;20047;-81
2023/01/14 13:15:37;;;;;;;5.07;2.38;;;7.80;99.90;;;;;;5132134;27;20051;-80
2023/01/14 13:18:35;;;;;;;8.15;1.60;;;7.80;99.90;;;;;;5130880;27;20391;-81
2023/01/14 13:21:59;;;;;;;4.78;1.20;;;7.90;99.90;;;;;;5131363;27;20074;-84
2023/01/14 13:24:46;;;;;;;2.60;1.00;;;8.00;99.90;;;;;;5131983;27;20058;-83
2023/01/14 13:27:36;;;;;;;4.20;1.10;;;8.00;99.90;;;;;;5131178;27;20051;-85
2023/01/14 13:30:22;;;;;;;4.35;0.77;;;8.10;99.90;;;;;;5131263;27;20403;-80
2023/01/14 13:33:22;;;;;;;3.60;1.05;;;8.20;99.90;;;;;;5135271;27;20491;-83
2023/01/14 13:36:11;;;;;;;3.63;0.82;;;8.30;99.90;;;;;;5130488;27;20043;-81
2023/01/14 13:39:06;;;;;;;2.15;0.82;;;8.30;99.90;;;;;;5130834;27;20103;-80
2023/01/14 13:41:55;;;;;;;3.20;0.93;;;8.40;99.90;;;;;;5130980;27;20111;-81
2023/01/14 13:44:48;;;;;;;2.90;0.65;;;8.50;99.90;;;;;;5131409;27;20074;-83
2023/01/14 13:47:37;;;;;;;2.05;0.73;;;8.60;99.90;;;;;;5116499;27;20139;-84
2023/01/14 13:50:24;;;;;;;2.90;1.00;;;8.60;99.90;;;;;;5131463;27;20047;-82
2023/01/14 13:53:16;;;;;;;1.98;0.90;;;8.70;99.90;;;;;;5113106;27;20561;-82
2023/01/14 13:56:03;;;;;;;2.20;0.80;;;8.70;99.90;;;;;;5083612;28;20515;-80
2023/01/14 13:58:52;;;;;;;1.85;0.90;;;8.70;99.90;;;;;;5093688;28;20138;-81
2023/01/14 14:01:41;;;;;;;4.05;1.17;;;8.80;99.90;;;;;;5111293;28;20044;-85
2023/01/14 14:04:55;;;;;;;3.92;1.15;;;8.90;99.90;;;;;;5110753;28;20185;-81
2023/01/14 14:07:44;;;;;;;2.78;1.02;;;8.90;99.90;;;;;;5110335;28;20052;-79
2023/01/14 14:10:41;;;;;;;3.25;1.17;;;8.90;99.90;;;;;;5092258;28;20081;-80
2023/01/14 14:17:24;;;;;;;4.32;1.27;;;9.00;99.90;;;;;;5115971;28;20048;-81
2023/01/14 14:20:16;;;;;;;3.03;0.80;;;9.00;99.90;;;;;;5110812;28;20047;-79
2023/01/14 14:23:05;;;;;;;3.13;1.17;;;9.00;99.90;;;;;;5109496;28;20571;-80
2023/01/14 14:25:52;;;;;;;2.95;1.08;;;9.10;99.90;;;;;;5109681;28;20085;-82
2023/01/14 14:28:41;;;;;;;3.13;1.42;;;9.10;99.90;;;;;;5109914;28;20098;-84
2023/01/14 14:31:31;;;;;;;3.38;1.30;;;9.10;99.90;;;;;;5081560;28;20047;-81
2023/01/14 14:34:21;;;;;;;1.95;0.88;;;9.10;99.90;;;;;;5110739;28;20447;-81
2023/01/14 14:37:21;;;;;;;3.17;0.95;;;9.10;99.90;;;;;;5115512;28;20057;-80
2023/01/14 14:40:26;;;;;;;3.80;1.30;;;9.20;99.90;;;;;;5111652;28;20518;-81
2023/01/14 14:43:27;;;;;;;2.63;0.95;;;9.20;99.90;;;;;;5111198;28;20048;-84
2023/01/14 14:46:23;;;;;;;2.22;0.95;;;9.20;99.90;;;;;;5108648;28;20052;-81
2023/01/14 14:49:30;;;;;;;2.58;1.00;;;9.20;99.90;;;;;;5110539;28;20485;-80
2023/01/14 14:52:18;;;;;;;2.85;1.20;;;9.20;99.90;;;;;;5110354;28;20444;-81
2023/01/14 14:55:12;;;;;;;1.95;0.80;;;9.20;99.90;;;;;;5110951;28;20054;-80
2023/01/14 14:58:03;;;;;;;2.00;1.02;;;9.20;99.90;;;;;;5116239;28;20111;-83
2023/01/14 15:01:08;;;;;;;2.28;1.00;;;9.20;99.90;;;;;;5111937;28;20096;-80
2023/01/14 15:03:55;;;;;;;3.50;1.25;;;9.20;99.90;;;;;;5109792;28;20048;-81
2023/01/14 15:06:41;;;;;;;3.22;1.15;;;9.20;99.90;;;;;;5110795;28;20044;-85
2023/01/14 15:09:30;;;;;;;3.05;1.20;;;9.20;99.90;;;;;;5111166;28;20158;-81
2023/01/14 15:12:19;;;;;;;2.25;1.00;;;9.30;99.90;;;;;;5116452;28;20044;-83
2023/01/14 15:15:17;;;;;;;2.80;1.25;;;9.30;99.90;;;;;;5118361;28;20050;-80
2023/01/14 15:18:06;;;;;;;3.13;0.80;;;9.30;99.90;;;;;;5105593;28;20614;-80
2023/01/14 15:20:54;;;;;;;3.88;1.20;;;9.30;99.90;;;;;;5114756;28;20056;-84
2023/01/14 15:23:47;;;;;;;3.75;1.23;;;9.30;99.90;;;;;;5113812;28;20051;-80
2023/01/14 15:29:20;;;;;;;3.47;1.40;;;9.30;99.90;;;;;;5055735;22;20065;-82
2023/01/14 15:32:40;;;;;;;2.67;1.23;;;9.30;99.90;;;;;;5050850;28;20404;-81
2023/01/14 15:35:32;;;;;;;3.30;1.50;;;9.30;99.90;;;;;;4963387;28;20041;-78